Terminal Aerodrome Forecast
Issued by NWS Atlanta, GA

Home | Current Version | Previous Version | Text Only | Print | Product List | Glossary On
Versions: 1 2 3 4 5 6 7 8 9 10 11 12 13 14 15 16 17 18 19 20 21 22 23 24 25 26 27 28 29 30 31 32 33 34
000
FTUS42 KFFC 231913 AAB
TAFCSG
TAF AMD
KCSG 231913Z 2319/2418 32018G30KT P6SM BKN035
      TEMPO 2320/2321 SCT025
     FM232100 32015G25KT P6SM SCT035
     FM240300 32012KT P6SM SKC
     FM240800 31007KT P6SM SKC=

USA.gov is the U.S. government's official web portal to all federal, state and local government web resources and services.